Time,TemperatureF,DewpointF,PressureIn,WindDirection,WindDirectionDegrees,WindSpeedMPH,WindSpeedGustMPH,Humidity,HourlyPrecipIn,Conditions,Clouds,dailyrainin,SoftwareType,DateUTC
2013-01-03 00:03:00,36.1,14.2,30.12,SE,124,8.1,10.5,40,0.00,,,0.00,VWS V13.01,2013-01-03 08:03:00,
2013-01-03 00:08:00,36.1,14.2,30.12,ESE,119,7.6,10.5,40,0.00,,,0.00,VWS V13.01,2013-01-03 08:08:00,
2013-01-03 00:13:00,36.1,14.2,30.12,SE,146,7.2,11.0,40,0.00,,,0.00,VWS V13.01,2013-01-03 08:13:00,
2013-01-03 00:18:00,36.0,14.0,30.12,ESE,121,7.6,10.1,40,0.00,,,0.00,VWS V13.01,2013-01-03 08:18:00,
2013-01-03 00:23:00,35.8,13.8,30.12,SE,129,11.0,11.0,40,0.00,,,0.00,VWS V13.01,2013-01-03 08:23:00,
2013-01-03 00:28:00,35.8,13.8,30.12,SSE,149,8.7,13.2,40,0.00,,,0.00,VWS V13.01,2013-01-03 08:28:00,
2013-01-03 00:33:00,35.8,13.8,30.12,SE,127,12.8,15.9,40,0.00,,,0.00,VWS V13.01,2013-01-03 08:33:00,
2013-01-03 00:38:00,35.8,13.8,30.12,SE,129,12.8,12.8,40,0.00,,,0.00,VWS V13.01,2013-01-03 08:38:00,
2013-01-03 00:43:00,35.8,13.8,30.12,SE,126,5.4,8.7,40,0.00,,,0.00,VWS V13.01,2013-01-03 08:43:00,
2013-01-03 00:48:00,35.8,13.8,30.12,SSE,165,6.7,14.5,40,0.00,,,0.00,VWS V13.01,2013-01-03 08:48:00,
2013-01-03 00:53:00,35.8,13.8,30.12,SE,128,12.8,12.8,40,0.00,,,0.00,VWS V13.01,2013-01-03 08:53:00,
2013-01-03 00:58:00,35.8,13.8,30.12,SE,140,10.5,10.5,40,0.00,,,0.00,VWS V13.01,2013-01-03 08:58:00,
2013-01-03 01:03:00,35.8,13.8,30.12,ESE,112,8.3,11.4,40,0.00,,,0.00,VWS V13.01,2013-01-03 09:03:00,
2013-01-03 01:08:00,35.8,13.8,30.12,SE,131,8.3,8.3,40,0.00,,,0.00,VWS V13.01,2013-01-03 09:08:00,
2013-01-03 01:13:00,35.6,13.7,30.12,SE,137,11.0,13.2,40,0.00,,,0.00,VWS V13.01,2013-01-03 09:13:00,
2013-01-03 01:18:00,35.6,13.7,30.12,SE,131,10.1,10.1,40,0.00,,,0.00,VWS V13.01,2013-01-03 09:18:00,
2013-01-03 01:23:00,35.6,13.7,30.12,SE,129,13.2,13.2,40,0.00,,,0.00,VWS V13.01,2013-01-03 09:23:00,
2013-01-03 01:28:00,35.6,13.7,30.12,SE,129,8.1,8.7,40,0.00,,,0.00,VWS V13.01,2013-01-03 09:28:00,
2013-01-03 01:33:00,35.6,13.7,30.12,SE,135,12.3,17.9,40,0.00,,,0.00,VWS V13.01,2013-01-03 09:33:00,
2013-01-03 01:38:00,35.4,14.1,30.12,SE,125,10.5,10.5,41,0.00,,,0.00,VWS V13.01,2013-01-03 09:38:00,
2013-01-03 01:43:00,35.6,13.7,30.12,SSE,149,10.1,10.1,40,0.00,,,0.00,VWS V13.01,2013-01-03 09:43:00,
2013-01-03 01:48:00,35.4,14.1,30.12,SE,136,15.0,15.0,41,0.00,,,0.00,VWS V13.01,2013-01-03 09:48:00,
2013-01-03 01:53:00,35.4,14.1,30.12,ESE,106,17.4,17.4,41,0.00,,,0.00,VWS V13.01,2013-01-03 09:53:00,
2013-01-03 01:58:00,35.4,14.1,30.12,ESE,119,10.1,10.1,41,0.00,,,0.00,VWS V13.01,2013-01-03 09:58:00,
2013-01-03 02:03:00,35.4,14.1,30.12,SSE,164,6.3,11.4,41,0.00,,,0.00,VWS V13.01,2013-01-03 10:03:00,
2013-01-03 02:08:00,35.4,14.1,30.12,SSE,158,12.3,12.3,41,0.00,,,0.00,VWS V13.01,2013-01-03 10:08:00,
2013-01-03 02:13:00,35.4,14.1,30.12,SSE,151,8.3,8.7,41,0.00,,,0.00,VWS V13.01,2013-01-03 10:13:00,
2013-01-03 02:18:00,35.2,13.9,30.12,SE,126,17.4,17.4,41,0.00,,,0.00,VWS V13.01,2013-01-03 10:18:00,
2013-01-03 02:23:00,35.4,14.1,30.12,SE,132,8.3,13.2,41,0.00,,,0.00,VWS V13.01,2013-01-03 10:23:00,
2013-01-03 02:28:00,35.4,13.5,30.12,SSE,160,13.6,13.6,40,0.00,,,0.00,VWS V13.01,2013-01-03 10:28:00,
2013-01-03 02:33:00,35.4,13.5,30.12,SE,133,10.1,11.0,40,0.00,,,0.00,VWS V13.01,2013-01-03 10:33:00,
2013-01-03 02:38:00,35.4,13.5,30.12,SE,145,12.3,12.3,40,0.00,,,0.00,VWS V13.01,2013-01-03 10:38:00,
2013-01-03 02:43:00,35.4,13.5,30.12,ESE,106,14.5,14.5,40,0.00,,,0.00,VWS V13.01,2013-01-03 10:43:00,
2013-01-03 02:48:00,35.4,13.5,30.12,SE,124,13.2,13.2,40,0.00,,,0.00,VWS V13.01,2013-01-03 10:48:00,
2013-01-03 02:53:00,35.4,13.5,30.09,SE,134,14.1,15.0,40,0.00,,,0.00,VWS V13.01,2013-01-03 10:53:00,
2013-01-03 02:58:00,35.4,13.5,30.09,SSE,157,8.1,9.2,40,0.00,,,0.00,VWS V13.01,2013-01-03 10:58:00,
2013-01-03 03:03:00,35.6,13.7,30.09,ESE,122,8.7,10.1,40,0.00,,,0.00,VWS V13.01,2013-01-03 11:03:00,
2013-01-03 03:08:00,35.6,13.7,30.09,ESE,117,8.3,11.0,40,0.00,,,0.00,VWS V13.01,2013-01-03 11:08:00,
2013-01-03 03:13:00,35.6,13.7,30.09,SE,145,17.4,17.4,40,0.00,,,0.00,VWS V13.01,2013-01-03 11:13:00,
2013-01-03 03:18:00,35.6,13.7,30.09,SE,146,8.1,11.0,40,0.00,,,0.00,VWS V13.01,2013-01-03 11:18:00,
2013-01-03 03:23:00,35.6,13.7,30.09,SSE,153,9.6,9.6,40,0.00,,,0.00,VWS V13.01,2013-01-03 11:23:00,
2013-01-03 03:28:00,35.6,13.7,30.09,SSE,158,6.3,7.6,40,0.00,,,0.00,VWS V13.01,2013-01-03 11:28:00,
2013-01-03 03:33:00,35.4,13.5,30.09,SE,128,10.5,10.5,40,0.00,,,0.00,VWS V13.01,2013-01-03 11:33:00,
2013-01-03 03:38:00,35.6,13.7,30.12,SE,126,13.6,13.6,40,0.00,,,0.00,VWS V13.01,2013-01-03 11:38:00,
2013-01-03 03:43:00,35.6,13.7,30.12,SE,137,12.3,12.3,40,0.00,,,0.00,VWS V13.01,2013-01-03 11:43:00,
2013-01-03 03:48:00,35.4,13.5,30.12,SE,143,18.3,18.3,40,0.00,,,0.00,VWS V13.01,2013-01-03 11:48:00,
2013-01-03 03:53:00,35.6,13.7,30.09,SE,131,17.0,17.0,40,0.00,,,0.00,VWS V13.01,2013-01-03 11:53:00,
2013-01-03 03:58:00,35.4,13.5,30.09,SE,131,13.2,13.2,40,0.00,,,0.00,VWS V13.01,2013-01-03 11:58:00,
2013-01-03 04:03:00,35.4,13.5,30.09,SE,126,13.2,13.2,40,0.00,,,0.00,VWS V13.01,2013-01-03 12:03:00,
2013-01-03 04:08:00,35.4,13.5,30.09,SE,131,17.0,17.0,40,0.00,,,0.00,VWS V13.01,2013-01-03 12:08:00,
2013-01-03 04:13:00,35.4,13.5,30.09,ESE,111,8.7,8.7,40,0.00,,,0.00,VWS V13.01,2013-01-03 12:13:00,
2013-01-03 04:18:00,35.4,13.5,30.09,SSE,153,8.7,16.8,40,0.00,,,0.00,VWS V13.01,2013-01-03 12:18:00,
2013-01-03 04:23:00,35.2,13.4,30.09,ESE,105,9.6,13.2,40,0.00,,,0.00,VWS V13.01,2013-01-03 12:23:00,
2013-01-03 04:28:00,35.2,13.4,30.09,SE,136,8.7,10.1,40,0.00,,,0.00,VWS V13.01,2013-01-03 12:28:00,
2013-01-03 04:33:00,35.2,13.4,30.09,SSE,151,9.2,13.2,40,0.00,,,0.00,VWS V13.01,2013-01-03 12:33:00,
2013-01-03 04:38:00,35.2,13.4,30.09,ESE,119,10.5,14.1,40,0.00,,,0.00,VWS V13.01,2013-01-03 12:38:00,
2013-01-03 04:43:00,35.2,13.4,30.09,SE,132,17.0,17.0,40,0.00,,,0.00,VWS V13.01,2013-01-03 12:43:00,
2013-01-03 04:48:00,35.2,13.4,30.09,ESE,108,8.3,14.5,40,0.00,,,0.00,VWS V13.01,2013-01-03 12:48:00,
2013-01-03 04:53:00,35.1,13.2,30.09,ESE,119,6.3,11.9,40,0.00,,,0.00,VWS V13.01,2013-01-03 12:53:00,
2013-01-03 04:58:00,35.1,13.2,30.09,SE,142,15.9,17.0,40,0.00,,,0.00,VWS V13.01,2013-01-03 12:58:00,
2013-01-03 05:03:00,35.2,13.4,30.09,ESE,119,17.4,18.8,40,0.00,,,0.00,VWS V13.01,2013-01-03 13:03:00,
2013-01-03 05:08:00,35.2,13.4,30.09,SE,128,8.1,15.4,40,0.00,,,0.00,VWS V13.01,2013-01-03 13:08:00,
2013-01-03 05:13:00,35.1,13.2,30.09,ESE,123,12.3,12.3,40,0.00,,,0.00,VWS V13.01,2013-01-03 13:13:00,
2013-01-03 05:18:00,35.2,13.4,30.09,SSE,159,12.3,16.8,40,0.00,,,0.00,VWS V13.01,2013-01-03 13:18:00,
2013-01-03 05:23:00,35.1,13.2,30.09,SE,130,13.6,13.6,40,0.00,,,0.00,VWS V13.01,2013-01-03 13:23:00,
2013-01-03 05:28:00,35.2,13.4,30.09,East,99,11.9,17.0,40,0.00,,,0.00,VWS V13.01,2013-01-03 13:28:00,
2013-01-03 05:33:00,35.2,13.4,30.09,SE,137,9.2,12.3,40,0.00,,,0.00,VWS V13.01,2013-01-03 13:33:00,
2013-01-03 05:38:00,35.1,13.2,30.09,SE,133,8.1,10.5,40,0.00,,,0.00,VWS V13.01,2013-01-03 13:38:00,
2013-01-03 05:43:00,35.1,13.2,30.09,SE,138,16.8,16.8,40,0.00,,,0.00,VWS V13.01,2013-01-03 13:43:00,
2013-01-03 05:48:00,35.1,13.2,30.09,SSE,153,5.8,12.3,40,0.00,,,0.00,VWS V13.01,2013-01-03 13:48:00,
2013-01-03 05:53:00,35.1,13.2,30.09,SE,125,12.3,12.3,40,0.00,,,0.00,VWS V13.01,2013-01-03 13:53:00,
2013-01-03 05:58:00,35.1,13.2,30.09,SE,138,8.3,13.2,40,0.00,,,0.00,VWS V13.01,2013-01-03 13:58:00,
2013-01-03 06:03:00,35.1,13.2,30.09,East,91,13.2,13.2,40,0.00,,,0.00,VWS V13.01,2013-01-03 14:03:00,
2013-01-03 06:08:00,35.1,13.2,30.09,ESE,109,8.7,13.2,40,0.00,,,0.00,VWS V13.01,2013-01-03 14:08:00,
2013-01-03 06:13:00,35.1,13.2,30.09,SE,133,10.5,13.6,40,0.00,,,0.00,VWS V13.01,2013-01-03 14:13:00,
2013-01-03 06:18:00,35.1,13.2,30.09,ESE,118,13.6,14.5,40,0.00,,,0.00,VWS V13.01,2013-01-03 14:18:00,
2013-01-03 06:23:00,35.1,13.2,30.09,SSE,166,9.6,12.3,40,0.00,,,0.00,VWS V13.01,2013-01-03 14:23:00,
2013-01-03 06:28:00,34.9,13.0,30.09,SE,144,8.7,11.4,40,0.00,,,0.00,VWS V13.01,2013-01-03 14:28:00,
2013-01-03 06:33:00,34.9,13.0,30.09,SSE,155,5.4,8.1,40,0.00,,,0.00,VWS V13.01,2013-01-03 14:33:00,
2013-01-03 06:38:00,34.9,13.0,30.09,SE,145,8.3,11.0,40,0.00,,,0.00,VWS V13.01,2013-01-03 14:38:00,
2013-01-03 06:43:00,34.9,13.0,30.09,SSE,164,5.4,10.5,40,0.00,,,0.00,VWS V13.01,2013-01-03 14:43:00,
2013-01-03 06:48:00,34.9,13.0,30.09,SSE,157,8.1,10.5,40,0.00,,,0.00,VWS V13.01,2013-01-03 14:48:00,
2013-01-03 06:53:00,35.1,13.2,30.09,SE,142,8.3,13.6,40,0.00,,,0.00,VWS V13.01,2013-01-03 14:53:00,
2013-01-03 06:58:00,35.1,13.2,30.09,SE,146,10.1,12.8,40,0.00,,,0.00,VWS V13.01,2013-01-03 14:58:00,
2013-01-03 07:03:00,35.1,13.2,30.09,SE,146,14.1,14.1,40,0.00,,,0.00,VWS V13.01,2013-01-03 15:03:00,
2013-01-03 07:08:00,35.4,13.5,30.06,SE,146,13.2,14.1,40,0.00,,,0.00,VWS V13.01,2013-01-03 15:08:00,
2013-01-03 07:13:00,35.2,13.4,30.06,SE,130,12.3,12.3,40,0.00,,,0.00,VWS V13.01,2013-01-03 15:13:00,
2013-01-03 07:18:00,35.2,13.4,30.06,SE,137,11.0,13.6,40,0.00,,,0.00,VWS V13.01,2013-01-03 15:18:00,
2013-01-03 07:23:00,35.4,13.5,30.09,SSE,150,10.1,10.1,40,0.00,,,0.00,VWS V13.01,2013-01-03 15:23:00,
2013-01-03 07:28:00,35.4,13.5,30.09,SE,130,5.8,11.0,40,0.00,,,0.00,VWS V13.01,2013-01-03 15:28:00,
2013-01-03 07:33:00,35.4,13.5,30.09,SE,126,9.2,12.8,40,0.00,,,0.00,VWS V13.01,2013-01-03 15:33:00,
2013-01-03 07:38:00,35.4,13.5,30.09,SE,132,8.1,15.0,40,0.00,,,0.00,VWS V13.01,2013-01-03 15:38:00,
2013-01-03 07:43:00,35.6,13.7,30.09,SE,137,6.3,11.0,40,0.00,,,0.00,VWS V13.01,2013-01-03 15:43:00,
2013-01-03 07:48:00,35.6,13.7,30.09,SSE,149,8.7,12.8,40,0.00,,,0.00,VWS V13.01,2013-01-03 15:48:00,
2013-01-03 07:53:00,35.8,13.8,30.09,ESE,102,10.5,13.2,40,0.00,,,0.00,VWS V13.01,2013-01-03 15:53:00,
2013-01-03 07:58:00,35.8,13.8,30.09,SE,130,11.0,15.0,40,0.00,,,0.00,VWS V13.01,2013-01-03 15:58:00,
2013-01-03 08:03:00,36.0,14.0,30.09,ESE,111,14.1,15.4,40,0.00,,,0.00,VWS V13.01,2013-01-03 16:03:00,
2013-01-03 08:08:00,35.8,13.8,30.09,SE,138,8.3,10.5,40,0.00,,,0.00,VWS V13.01,2013-01-03 16:08:00,
2013-01-03 08:13:00,36.0,14.0,30.09,SSE,153,16.8,16.8,40,0.00,,,0.00,VWS V13.01,2013-01-03 16:13:00,
2013-01-03 08:18:00,36.1,14.2,30.09,SSE,158,15.4,15.4,40,0.00,,,0.00,VWS V13.01,2013-01-03 16:18:00,
2013-01-03 08:23:00,36.1,14.2,30.09,ESE,122,10.1,12.8,40,0.00,,,0.00,VWS V13.01,2013-01-03 16:23:00,
2013-01-03 08:28:00,36.3,14.3,30.09,SE,130,7.6,16.8,40,0.00,,,0.00,VWS V13.01,2013-01-03 16:28:00,
2013-01-03 08:33:00,36.5,14.5,30.09,ESE,112,8.7,12.3,40,0.00,,,0.00,VWS V13.01,2013-01-03 16:33:00,
2013-01-03 08:37:00,36.5,14.5,30.09,SE,131,15.4,15.4,40,0.00,,,0.00,VWS V13.01,2013-01-03 16:37:00,
2013-01-03 08:42:00,36.7,14.6,30.09,SSE,156,12.3,15.9,40,0.00,,,0.00,VWS V13.01,2013-01-03 16:42:00,
2013-01-03 08:47:00,36.7,14.6,30.09,ESE,118,9.2,14.5,40,0.00,,,0.00,VWS V13.01,2013-01-03 16:47:00,
2013-01-03 08:52:00,36.7,14.6,30.09,SSE,154,11.9,17.4,40,0.00,,,0.00,VWS V13.01,2013-01-03 16:52:00,
2013-01-03 08:57:00,36.9,14.8,30.09,SSE,158,11.0,16.8,40,0.00,,,0.00,VWS V13.01,2013-01-03 16:57:00,
2013-01-03 09:02:00,36.9,14.8,30.09,SSE,157,8.3,11.4,40,0.00,,,0.00,VWS V13.01,2013-01-03 17:02:00,
2013-01-03 09:07:00,37.0,15.0,30.09,SSE,147,10.5,13.2,40,0.00,,,0.00,VWS V13.01,2013-01-03 17:07:00,
2013-01-03 09:12:00,37.0,15.0,30.09,SE,136,11.0,15.4,40,0.00,,,0.00,VWS V13.01,2013-01-03 17:12:00,
2013-01-03 09:17:00,37.2,15.1,30.09,SE,144,6.3,10.5,40,0.00,,,0.00,VWS V13.01,2013-01-03 17:17:00,
2013-01-03 09:22:00,37.2,15.1,30.12,SSE,156,12.3,12.3,40,0.00,,,0.00,VWS V13.01,2013-01-03 17:22:00,
2013-01-03 09:27:00,37.4,14.7,30.12,SE,128,8.1,8.1,39,0.00,,,0.00,VWS V13.01,2013-01-03 17:27:00,
2013-01-03 09:32:00,37.4,14.7,30.12,SSE,161,7.6,14.1,39,0.00,,,0.00,VWS V13.01,2013-01-03 17:32:00,
2013-01-03 09:37:00,37.4,14.7,30.12,ESE,113,11.0,11.0,39,0.00,,,0.00,VWS V13.01,2013-01-03 17:37:00,
2013-01-03 09:42:00,37.4,14.7,30.12,ESE,116,13.2,13.2,39,0.00,,,0.00,VWS V13.01,2013-01-03 17:42:00,
2013-01-03 09:47:00,37.4,14.7,30.12,ESE,119,8.3,15.4,39,0.00,,,0.00,VWS V13.01,2013-01-03 17:47:00,
2013-01-03 09:52:00,37.6,14.9,30.12,SE,125,10.1,13.2,39,0.00,,,0.00,VWS V13.01,2013-01-03 17:52:00,
2013-01-03 09:57:00,37.8,15.0,30.12,ESE,113,8.1,8.1,39,0.00,,,0.00,VWS V13.01,2013-01-03 17:57:00,
2013-01-03 10:02:00,37.9,15.2,30.12,ESE,109,5.8,10.5,39,0.00,,,0.00,VWS V13.01,2013-01-03 18:02:00,
2013-01-03 10:07:00,37.9,15.2,30.12,SSE,149,7.2,11.0,39,0.00,,,0.00,VWS V13.01,2013-01-03 18:07:00,
2013-01-03 10:12:00,38.1,15.4,30.12,South,170,5.8,8.7,39,0.00,,,0.00,VWS V13.01,2013-01-03 18:12:00,
2013-01-03 10:17:00,38.3,15.5,30.12,ESE,123,10.1,11.0,39,0.00,,,0.00,VWS V13.01,2013-01-03 18:17:00,
2013-01-03 10:22:00,38.5,15.7,30.12,SE,145,7.2,10.5,39,0.00,,,0.00,VWS V13.01,2013-01-03 18:22:00,
2013-01-03 10:27:00,38.5,15.7,30.12,SSE,168,6.3,8.3,39,0.00,,,0.00,VWS V13.01,2013-01-03 18:27:00,
2013-01-03 10:32:00,38.8,16.0,30.12,SSE,163,8.3,8.3,39,0.00,,,0.00,VWS V13.01,2013-01-03 18:32:00,
2013-01-03 10:37:00,39.0,16.2,30.15,SSE,154,5.8,10.1,39,0.00,,,0.00,VWS V13.01,2013-01-03 18:37:00,
2013-01-03 10:42:00,39.0,16.2,30.15,SE,141,5.4,11.0,39,0.00,,,0.00,VWS V13.01,2013-01-03 18:42:00,
2013-01-03 10:47:00,39.0,16.2,30.15,SSE,153,5.8,6.3,39,0.00,,,0.00,VWS V13.01,2013-01-03 18:47:00,
2013-01-03 10:52:00,39.2,16.3,30.15,SE,130,4.0,5.4,39,0.00,,,0.00,VWS V13.01,2013-01-03 18:52:00,
2013-01-03 10:57:00,39.6,16.7,30.15,ESE,117,3.1,5.4,39,0.00,,,0.00,VWS V13.01,2013-01-03 18:57:00,
2013-01-03 11:02:00,39.6,16.7,30.15,SSE,166,5.4,11.9,39,0.00,,,0.00,VWS V13.01,2013-01-03 19:02:00,
2013-01-03 11:07:00,39.9,17.0,30.15,SE,125,3.6,5.8,39,0.00,,,0.00,VWS V13.01,2013-01-03 19:07:00,
2013-01-03 11:12:00,39.9,17.0,30.15,SSE,149,10.5,10.5,39,0.00,,,0.00,VWS V13.01,2013-01-03 19:12:00,
2013-01-03 11:17:00,39.9,17.0,30.15,ESE,119,6.3,10.1,39,0.00,,,0.00,VWS V13.01,2013-01-03 19:17:00,
2013-01-03 11:55:00,40.6,17.6,30.12,ESE,109,5.8,11.0,39,0.00,,,0.00,VWS V13.01,2013-01-03 19:55:00,
2013-01-03 12:00:00,41.0,18.0,30.12,ESE,123,7.6,8.1,39,0.00,,,0.00,VWS V13.01,2013-01-03 20:00:00,
2013-01-03 12:05:00,41.0,18.0,30.12,ESE,104,9.6,9.6,39,0.00,,,0.00,VWS V13.01,2013-01-03 20:05:00,
2013-01-03 12:10:00,41.2,18.1,30.12,SSE,154,4.9,5.4,39,0.00,,,0.00,VWS V13.01,2013-01-03 20:10:00,
2013-01-03 12:15:00,41.7,18.6,30.12,SSE,160,5.8,5.8,39,0.00,,,0.00,VWS V13.01,2013-01-03 20:15:00,
2013-01-03 12:20:00,42.3,19.1,30.12,SSE,147,8.1,8.1,39,0.00,,,0.00,VWS V13.01,2013-01-03 20:20:00,
2013-01-03 12:25:00,42.6,19.4,30.12,SSE,149,5.4,8.1,39,0.00,,,0.00,VWS V13.01,2013-01-03 20:25:00,
2013-01-03 12:30:00,43.0,19.1,30.12,ESE,116,5.4,5.4,38,0.00,,,0.00,VWS V13.01,2013-01-03 20:30:00,
2013-01-03 12:35:00,43.5,19.6,30.12,ESE,107,6.3,8.7,38,0.00,,,0.00,VWS V13.01,2013-01-03 20:35:00,
2013-01-03 12:40:00,44.1,20.1,30.09,ESE,118,7.2,7.2,38,0.00,,,0.00,VWS V13.01,2013-01-03 20:40:00,
2013-01-03 12:45:00,45.0,20.9,30.09,SE,132,3.6,8.3,38,0.00,,,0.00,VWS V13.01,2013-01-03 20:45:00,
2013-01-03 12:50:00,45.9,21.7,30.09,SE,126,3.6,3.6,38,0.00,,,0.00,VWS V13.01,2013-01-03 20:50:00,
2013-01-03 12:55:00,46.6,21.7,30.09,SE,128,5.8,5.8,37,0.00,,,0.00,VWS V13.01,2013-01-03 20:55:00,
2013-01-03 13:00:00,46.8,21.9,30.09,SE,128,6.3,6.3,37,0.00,,,0.00,VWS V13.01,2013-01-03 21:00:00,
2013-01-03 13:05:00,46.8,21.9,30.09,SE,126,5.8,5.8,37,0.00,,,0.00,VWS V13.01,2013-01-03 21:05:00,
2013-01-03 13:10:00,47.3,22.4,30.09,SE,126,3.6,3.6,37,0.00,,,0.00,VWS V13.01,2013-01-03 21:10:00,
2013-01-03 13:15:00,47.8,22.9,30.09,SE,126,3.1,3.1,37,0.00,,,0.00,VWS V13.01,2013-01-03 21:15:00,
2013-01-03 13:20:00,48.6,23.5,30.09,South,181,2.7,4.9,37,0.00,,,0.00,VWS V13.01,2013-01-03 21:20:00,
2013-01-03 13:25:00,48.9,23.8,30.09,South,181,3.6,3.6,37,0.00,,,0.00,VWS V13.01,2013-01-03 21:25:00,
2013-01-03 13:30:00,49.1,24.0,30.09,South,181,3.1,4.0,37,0.00,,,0.00,VWS V13.01,2013-01-03 21:30:00,
2013-01-03 13:35:00,48.9,23.8,30.09,South,179,3.6,5.8,37,0.00,,,0.00,VWS V13.01,2013-01-03 21:35:00,
2013-01-03 13:40:00,48.7,23.6,30.09,South,179,2.7,3.1,37,0.00,,,0.00,VWS V13.01,2013-01-03 21:40:00,
2013-01-03 13:45:00,48.2,23.2,30.09,South,179,4.9,4.9,37,0.00,,,0.00,VWS V13.01,2013-01-03 21:45:00,
2013-01-03 13:50:00,47.8,22.9,30.09,South,179,3.1,4.5,37,0.00,,,0.00,VWS V13.01,2013-01-03 21:50:00,
2013-01-03 13:55:00,47.7,22.7,30.09,South,179,4.0,4.0,37,0.00,,,0.00,VWS V13.01,2013-01-03 21:55:00,
2013-01-03 14:00:00,48.0,23.0,30.09,South,179,5.4,5.4,37,0.00,,,0.00,VWS V13.01,2013-01-03 22:00:00,
2013-01-03 14:05:00,48.4,23.3,30.09,South,179,4.0,4.0,37,0.00,,,0.00,VWS V13.01,2013-01-03 22:05:00,
2013-01-03 14:10:00,48.7,23.6,30.09,South,177,3.6,4.0,37,0.00,,,0.00,VWS V13.01,2013-01-03 22:10:00,
2013-01-03 14:15:00,49.1,24.0,30.09,South,181,4.0,4.0,37,0.00,,,0.00,VWS V13.01,2013-01-03 22:15:00,
2013-01-03 14:20:00,49.6,24.5,30.09,SSW,212,3.1,5.4,37,0.00,,,0.00,VWS V13.01,2013-01-03 22:20:00,
2013-01-03 14:25:00,50.2,24.9,30.09,SSE,149,3.6,8.3,37,0.00,,,0.00,VWS V13.01,2013-01-03 22:25:00,
2013-01-03 14:30:00,50.5,25.2,30.09,SSE,161,6.3,6.3,37,0.00,,,0.00,VWS V13.01,2013-01-03 22:30:00,
2013-01-03 14:35:00,50.7,25.4,30.09,South,176,2.7,2.7,37,0.00,,,0.00,VWS V13.01,2013-01-03 22:35:00,
2013-01-03 14:40:00,50.7,25.4,30.09,SSE,160,5.4,6.3,37,0.00,,,0.00,VWS V13.01,2013-01-03 22:40:00,
2013-01-03 14:45:00,50.9,25.6,30.09,South,189,5.4,5.4,37,0.00,,,0.00,VWS V13.01,2013-01-03 22:45:00,
2013-01-03 14:50:00,50.9,25.6,30.09,South,169,0.0,0.0,37,0.00,,,0.00,VWS V13.01,2013-01-03 22:50:00,
2013-01-03 14:55:00,51.1,25.7,30.09,SSE,162,6.3,7.6,37,0.00,,,0.00,VWS V13.01,2013-01-03 22:55:00,
2013-01-03 15:00:00,50.9,25.6,30.09,South,186,3.1,3.1,37,0.00,,,0.00,VWS V13.01,2013-01-03 23:00:00,
2013-01-03 15:05:00,51.1,25.7,30.09,SSW,202,7.6,7.6,37,0.00,,,0.00,VWS V13.01,2013-01-03 23:05:00,
2013-01-03 15:10:00,51.1,25.7,30.12,SSW,207,5.4,5.4,37,0.00,,,0.00,VWS V13.01,2013-01-03 23:10:00,
2013-01-03 15:15:00,51.1,25.7,30.12,SW,232,7.2,7.2,37,0.00,,,0.00,VWS V13.01,2013-01-03 23:15:00,
2013-01-03 15:20:00,50.9,25.6,30.12,SSW,202,9.6,9.6,37,0.00,,,0.00,VWS V13.01,2013-01-03 23:20:00,
2013-01-03 15:25:00,50.9,25.6,30.12,WSW,252,8.3,8.3,37,0.00,,,0.00,VWS V13.01,2013-01-03 23:25:00,
2013-01-03 15:30:00,50.7,25.4,30.12,South,190,4.0,4.0,37,0.00,,,0.00,VWS V13.01,2013-01-03 23:30:00,
2013-01-03 15:35:00,50.5,25.9,30.12,SW,217,3.6,5.8,38,0.00,,,0.00,VWS V13.01,2013-01-03 23:35:00,
2013-01-03 15:40:00,50.4,25.7,30.12,SW,224,3.6,4.0,38,0.00,,,0.00,VWS V13.01,2013-01-03 23:40:00,
2013-01-03 15:45:00,50.2,26.2,30.12,SW,224,4.9,5.4,39,0.00,,,0.00,VWS V13.01,2013-01-03 23:45:00,
2013-01-03 15:50:00,49.8,27.1,30.12,South,178,4.0,4.0,41,0.00,,,0.00,VWS V13.01,2013-01-03 23:50:00,
2013-01-03 15:55:00,49.6,28.6,30.12,South,185,4.0,10.5,44,0.00,,,0.00,VWS V13.01,2013-01-03 23:55:00,
2013-01-03 16:00:00,49.5,29.0,30.12,SSW,200,6.3,7.6,45,0.00,,,0.00,VWS V13.01,2013-01-04 00:00:00,
2013-01-03 16:05:00,49.3,29.4,30.12,South,186,4.0,11.0,46,0.00,,,0.00,VWS V13.01,2013-01-04 00:05:00,
2013-01-03 16:10:00,49.1,30.3,30.12,South,191,0.0,6.3,48,0.00,,,0.00,VWS V13.01,2013-01-04 00:10:00,
2013-01-03 16:15:00,48.9,30.6,30.12,SSW,207,4.9,4.9,49,0.00,,,0.00,VWS V13.01,2013-01-04 00:15:00,
2013-01-03 16:20:00,48.6,31.3,30.12,SW,226,2.7,2.7,51,0.00,,,0.00,VWS V13.01,2013-01-04 00:20:00,
2013-01-03 16:25:00,48.4,32.5,30.15,South,184,5.4,8.3,54,0.00,,,0.00,VWS V13.01,2013-01-04 00:25:00,
2013-01-03 16:30:00,48.4,33.4,30.15,SSW,210,3.1,8.7,56,0.00,,,0.00,VWS V13.01,2013-01-04 00:30:00,
2013-01-03 16:35:00,48.2,34.1,30.15,SSW,213,0.0,0.0,58,0.00,,,0.00,VWS V13.01,2013-01-04 00:35:00,
2013-01-03 16:40:00,48.2,35.0,30.15,South,178,0.0,0.0,60,0.00,,,0.00,VWS V13.01,2013-01-04 00:40:00,
2013-01-03 16:45:00,48.2,36.6,30.15,South,178,2.7,2.7,64,0.00,,,0.00,VWS V13.01,2013-01-04 00:45:00,
2013-01-03 16:50:00,48.2,37.4,30.15,SSW,200,2.7,2.7,66,0.00,,,0.00,VWS V13.01,2013-01-04 00:50:00,
2013-01-03 16:55:00,48.2,38.5,30.15,WSW,244,2.7,3.6,69,0.00,,,0.00,VWS V13.01,2013-01-04 00:55:00,
2013-01-03 17:00:00,48.2,38.9,30.15,SW,224,0.0,4.0,70,0.00,,,0.00,VWS V13.01,2013-01-04 01:00:00,
2013-01-03 17:05:00,48.2,39.6,30.15,SW,229,0.0,3.1,72,0.00,,,0.00,VWS V13.01,2013-01-04 01:05:00,
2013-01-03 17:10:00,48.2,40.0,30.15,SW,229,2.7,4.5,73,0.00,,,0.00,VWS V13.01,2013-01-04 01:10:00,
2013-01-03 17:15:00,48.2,40.3,30.15,SW,233,3.1,5.4,74,0.00,,,0.00,VWS V13.01,2013-01-04 01:15:00,
2013-01-03 17:20:00,48.0,40.5,30.15,WSW,237,5.4,5.8,75,0.00,,,0.00,VWS V13.01,2013-01-04 01:20:00,
2013-01-03 17:25:00,47.8,40.7,30.15,WSW,237,2.2,3.6,76,0.00,,,0.00,VWS V13.01,2013-01-04 01:25:00,
2013-01-03 17:30:00,47.8,41.0,30.15,South,191,3.6,3.6,77,0.00,,,0.00,VWS V13.01,2013-01-04 01:30:00,
2013-01-03 17:35:00,47.8,41.3,30.15,South,177,5.4,6.3,78,0.00,,,0.00,VWS V13.01,2013-01-04 01:35:00,
2013-01-03 17:40:00,47.8,41.7,30.15,South,177,4.0,4.0,79,0.00,,,0.00,VWS V13.01,2013-01-04 01:40:00,
2013-01-03 17:45:00,47.8,41.7,30.15,SW,233,2.7,5.4,79,0.00,,,0.00,VWS V13.01,2013-01-04 01:45:00,
2013-01-03 17:50:00,47.8,42.0,30.15,South,187,2.2,2.7,80,0.00,,,0.00,VWS V13.01,2013-01-04 01:50:00,
2013-01-03 17:55:00,47.8,42.3,30.18,South,187,3.1,3.1,81,0.00,,,0.00,VWS V13.01,2013-01-04 01:55:00,
2013-01-03 18:00:00,48.0,42.8,30.18,South,187,2.7,3.6,82,0.00,,,0.00,VWS V13.01,2013-01-04 02:00:00,
2013-01-03 18:05:00,48.0,43.1,30.18,South,187,2.7,2.7,83,0.00,,,0.00,VWS V13.01,2013-01-04 02:05:00,
2013-01-03 18:10:00,48.0,43.4,30.18,South,189,0.0,3.1,84,0.00,,,0.00,VWS V13.01,2013-01-04 02:10:00,
2013-01-03 18:15:00,48.0,43.4,30.18,South,189,0.0,0.0,84,0.00,,,0.00,VWS V13.01,2013-01-04 02:15:00,
2013-01-03 18:20:00,48.0,43.7,30.18,South,189,0.0,4.5,85,0.00,,,0.00,VWS V13.01,2013-01-04 02:20:00,
2013-01-03 18:25:00,48.2,43.9,30.18,South,189,0.0,3.1,85,0.00,,,0.00,VWS V13.01,2013-01-04 02:25:00,
2013-01-03 18:30:00,48.2,44.2,30.18,South,189,2.7,2.7,86,0.00,,,0.00,VWS V13.01,2013-01-04 02:30:00,
2013-01-03 18:35:00,48.2,44.2,30.18,SSW,211,0.0,0.0,86,0.00,,,0.00,VWS V13.01,2013-01-04 02:35:00,
2013-01-03 18:40:00,48.2,44.2,30.18,SSW,211,0.0,3.1,86,0.00,,,0.00,VWS V13.01,2013-01-04 02:40:00,
2013-01-03 18:45:00,48.0,44.3,30.18,SSW,211,0.0,0.0,87,0.00,,,0.00,VWS V13.01,2013-01-04 02:45:00,
2013-01-03 18:50:00,48.2,44.5,30.18,SSW,210,2.7,3.6,87,0.00,,,0.00,VWS V13.01,2013-01-04 02:50:00,
2013-01-03 18:55:00,48.0,44.3,30.18,SW,224,3.1,5.4,87,0.00,,,0.00,VWS V13.01,2013-01-04 02:55:00,
2013-01-03 19:00:00,48.2,44.8,30.18,South,181,6.7,6.7,88,0.00,,,0.00,VWS V13.01,2013-01-04 03:00:00,
2013-01-03 19:05:00,48.2,45.1,30.18,SSE,166,5.8,5.8,89,0.00,,,0.00,VWS V13.01,2013-01-04 03:05:00,
2013-01-03 19:10:00,48.2,45.1,30.21,WSW,248,2.7,5.4,89,0.00,,,0.00,VWS V13.01,2013-01-04 03:10:00,
2013-01-03 19:15:00,48.4,45.6,30.21,SW,235,4.0,5.8,90,0.00,,,0.00,VWS V13.01,2013-01-04 03:15:00,
2013-01-03 19:20:00,48.4,45.9,30.21,SW,225,5.8,7.6,91,0.00,,,0.00,VWS V13.01,2013-01-04 03:20:00,
2013-01-03 19:25:00,48.4,45.9,30.21,SW,229,0.0,3.6,91,0.00,,,0.00,VWS V13.01,2013-01-04 03:25:00,
2013-01-03 19:30:00,48.4,45.9,30.21,West,277,2.7,4.0,91,0.00,,,0.00,VWS V13.01,2013-01-04 03:30:00,
2013-01-03 19:35:00,48.6,46.3,30.21,WNW,296,3.6,4.0,92,0.00,,,0.00,VWS V13.01,2013-01-04 03:35:00,
2013-01-03 19:40:00,48.6,46.3,30.21,North,353,3.6,4.0,92,0.00,,,0.00,VWS V13.01,2013-01-04 03:40:00,
2013-01-03 19:45:00,48.7,46.8,30.21,West,274,2.7,5.4,93,0.00,,,0.00,VWS V13.01,2013-01-04 03:45:00,
2013-01-03 19:50:00,48.7,46.8,30.21,West,274,0.0,4.0,93,0.00,,,0.00,VWS V13.01,2013-01-04 03:50:00,
2013-01-03 19:55:00,48.7,46.8,30.21,West,274,0.0,3.6,93,0.00,,,0.00,VWS V13.01,2013-01-04 03:55:00,
2013-01-03 20:00:00,48.7,46.8,30.21,West,274,0.0,0.0,93,0.00,,,0.00,VWS V13.01,2013-01-04 04:00:00,
2013-01-03 20:05:00,48.7,46.8,30.21,West,271,3.1,4.9,93,0.00,,,0.00,VWS V13.01,2013-01-04 04:05:00,
2013-01-03 20:10:00,48.7,46.8,30.21,West,271,0.0,4.9,93,0.00,,,0.00,VWS V13.01,2013-01-04 04:10:00,
2013-01-03 20:15:00,48.7,46.8,30.21,WSW,245,5.4,8.3,93,0.00,,,0.00,VWS V13.01,2013-01-04 04:15:00,
2013-01-03 20:20:00,48.9,47.3,30.21,SW,215,2.2,5.4,94,0.00,,,0.00,VWS V13.01,2013-01-04 04:20:00,
2013-01-03 20:25:00,48.9,47.3,30.21,WSW,253,3.1,4.9,94,0.00,,,0.00,VWS V13.01,2013-01-04 04:25:00,
2013-01-03 20:30:00,49.1,47.7,30.21,West,261,4.9,4.9,95,0.00,,,0.00,VWS V13.01,2013-01-04 04:30:00,
2013-01-03 20:35:00,49.3,47.9,30.21,West,268,3.6,5.8,95,0.00,,,0.00,VWS V13.01,2013-01-04 04:35:00,
2013-01-03 20:40:00,49.3,48.2,30.21,WNW,285,5.4,8.1,96,0.00,,,0.00,VWS V13.01,2013-01-04 04:40:00,
2013-01-03 20:45:00,49.3,48.2,30.21,NNW,339,2.2,7.6,96,0.00,,,0.00,VWS V13.01,2013-01-04 04:45:00,
2013-01-03 20:50:00,49.3,48.2,30.21,WNW,295,8.3,8.3,96,0.00,,,0.00,VWS V13.01,2013-01-04 04:50:00,
2013-01-03 20:55:00,49.3,48.2,30.24,WNW,291,5.8,5.8,96,0.00,,,0.00,VWS V13.01,2013-01-04 04:55:00,
2013-01-03 21:00:00,49.3,48.2,30.24,WNW,297,8.1,8.1,96,0.00,,,0.00,VWS V13.01,2013-01-04 05:00:00,
2013-01-03 21:02:00,49.3,48.2,30.24,WNW,297,8.1,8.7,96,0.00,,,0.00,VWS V13.01,2013-01-04 05:02:00,
2013-01-03 21:03:00,49.3,48.2,30.24,WNW,294,5.8,7.6,96,0.00,,,0.00,VWS V13.01,2013-01-04 05:03:00,
2013-01-03 21:08:00,49.5,48.7,30.24,West,268,5.4,10.5,97,0.00,,,0.00,VWS V13.01,2013-01-04 05:08:00,
2013-01-03 21:13:00,49.5,48.7,30.24,WNW,286,3.6,4.0,97,0.00,,,0.00,VWS V13.01,2013-01-04 05:13:00,
2013-01-03 21:18:00,49.5,48.7,30.24,WSW,257,4.9,5.4,97,0.00,,,0.00,VWS V13.01,2013-01-04 05:18:00,
2013-01-03 21:23:00,49.5,48.7,30.24,WNW,301,8.7,8.7,97,0.00,,,0.00,VWS V13.01,2013-01-04 05:23:00,
2013-01-03 21:28:00,49.5,48.9,30.24,NW,306,5.4,5.4,98,0.00,,,0.00,VWS V13.01,2013-01-04 05:28:00,
2013-01-03 21:33:00,49.3,48.7,30.24,NW,316,3.6,4.0,98,0.00,,,0.00,VWS V13.01,2013-01-04 05:33:00,
2013-01-03 21:38:00,49.3,48.7,30.24,WNW,284,5.8,5.8,98,0.00,,,0.00,VWS V13.01,2013-01-04 05:38:00,
2013-01-03 21:43:00,49.3,48.7,30.24,WNW,289,3.1,5.8,98,0.00,,,0.00,VWS V13.01,2013-01-04 05:43:00,
2013-01-03 21:48:00,49.3,48.7,30.24,WNW,287,3.6,5.8,98,0.00,,,0.00,VWS V13.01,2013-01-04 05:48:00,
2013-01-03 21:53:00,49.1,48.6,30.24,West,276,2.7,4.0,98,0.00,,,0.00,VWS V13.01,2013-01-04 05:53:00,
2013-01-03 21:58:00,49.1,48.6,30.24,WNW,300,3.6,5.8,98,0.00,,,0.00,VWS V13.01,2013-01-04 05:58:00,
2013-01-03 22:03:00,49.1,48.6,30.24,WNW,292,2.7,4.0,98,0.00,,,0.00,VWS V13.01,2013-01-04 06:03:00,
2013-01-03 22:08:00,49.1,48.6,30.27,WNW,282,2.7,2.7,98,0.00,,,0.00,VWS V13.01,2013-01-04 06:08:00,
2013-01-03 22:13:00,49.1,48.6,30.27,WNW,282,3.1,4.9,98,0.00,,,0.00,VWS V13.01,2013-01-04 06:13:00,
2013-01-03 22:18:00,49.1,48.6,30.27,WNW,283,2.2,2.7,98,0.00,,,0.00,VWS V13.01,2013-01-04 06:18:00,
2013-01-03 22:23:00,48.9,48.4,30.27,WNW,283,0.0,0.0,98,0.00,,,0.00,VWS V13.01,2013-01-04 06:23:00,
2013-01-03 22:28:00,48.9,48.4,30.27,WNW,282,0.0,3.6,98,0.00,,,0.00,VWS V13.01,2013-01-04 06:28:00,
2013-01-03 22:33:00,48.9,48.4,30.27,WNW,283,0.0,2.2,98,0.00,,,0.00,VWS V13.01,2013-01-04 06:33:00,
2013-01-03 22:38:00,48.9,48.4,30.27,West,279,0.0,0.0,98,0.00,,,0.00,VWS V13.01,2013-01-04 06:38:00,
2013-01-03 22:43:00,48.9,48.4,30.27,WNW,283,3.1,3.1,98,0.00,,,0.00,VWS V13.01,2013-01-04 06:43:00,
2013-01-03 22:48:00,48.9,48.4,30.27,WNW,283,0.0,3.1,98,0.00,,,0.00,VWS V13.01,2013-01-04 06:48:00,
2013-01-03 22:53:00,48.9,48.4,30.27,WNW,283,0.0,0.0,98,0.00,,,0.00,VWS V13.01,2013-01-04 06:53:00,
2013-01-03 22:58:00,48.9,48.4,30.27,WNW,283,0.0,0.0,98,0.00,,,0.00,VWS V13.01,2013-01-04 06:58:00,
2013-01-03 23:03:00,48.9,48.4,30.27,WNW,283,0.0,0.0,98,0.00,,,0.00,VWS V13.01,2013-01-04 07:03:00,
2013-01-03 23:08:00,48.7,48.2,30.27,WNW,283,3.6,3.6,98,0.00,,,0.00,VWS V13.01,2013-01-04 07:08:00,
2013-01-03 23:13:00,48.7,48.2,30.27,WNW,283,0.0,0.0,98,0.00,,,0.00,VWS V13.01,2013-01-04 07:13:00,
2013-01-03 23:18:00,48.9,48.4,30.27,WNW,283,3.6,4.9,98,0.00,,,0.00,VWS V13.01,2013-01-04 07:18:00,
2013-01-03 23:23:00,48.9,48.4,30.27,WNW,283,0.0,3.1,98,0.00,,,0.00,VWS V13.01,2013-01-04 07:23:00,
2013-01-03 23:28:00,48.9,48.4,30.27,WNW,283,3.6,5.8,98,0.00,,,0.00,VWS V13.01,2013-01-04 07:28:00,
2013-01-03 23:33:00,48.9,48.4,30.27,WNW,283,3.1,5.8,98,0.00,,,0.00,VWS V13.01,2013-01-04 07:33:00,
2013-01-03 23:38:00,48.9,48.4,30.30,WNW,283,3.6,3.6,98,0.00,,,0.00,VWS V13.01,2013-01-04 07:38:00,
2013-01-03 23:43:00,48.9,48.4,30.30,WNW,283,3.1,3.1,98,0.00,,,0.00,VWS V13.01,2013-01-04 07:43:00,
2013-01-03 23:48:00,48.9,48.4,30.30,WNW,287,5.8,5.8,98,0.00,,,0.00,VWS V13.01,2013-01-04 07:48:00,
2013-01-03 23:53:00,48.7,48.2,30.30,WNW,292,2.2,2.2,98,0.00,,,0.00,VWS V13.01,2013-01-04 07:53:00,
2013-01-03 23:58:00,48.7,48.2,30.30,WNW,298,2.7,3.6,98,0.00,,,0.00,VWS V13.01,2013-01-04 07:58:00,